Time;durP1;ratioP1;P1;durP2;ratioP2;P2;SDS_P1;SDS_P2;PMS_P1;PMS_P2;Temp;Humidity;BMP_temperature;BMP_pressure;BME280_temperature;BME280_humidity;BME280_pressure;Samples;Min_cycle;Max_cycle;Signal;HPM_P1;HPM_P2
2021/06/08 00:01:58;;;;;;;26.45;21.27;;;;;;;15.09;86.22;101663.44;5012422;28;20420;-86
2021/06/08 00:04:30;;;;;;;23.10;18.95;;;;;;;15.10;86.13;101663.41;5016156;28;20068;-86
2021/06/08 00:07:02;;;;;;;27.05;20.20;;;;;;;15.16;85.93;101657.19;4995347;28;20045;-86
2021/06/08 00:09:29;;;;;;;22.95;17.27;;;;;;;15.21;85.79;101656.25;5027348;28;20049;-85
2021/06/08 00:12:04;;;;;;;25.67;20.23;;;;;;;15.26;85.72;101657.97;4979413;28;20041;-85
2021/06/08 00:14:30;;;;;;;27.35;20.67;;;;;;;15.30;85.52;101663.16;4997739;28;20111;-85
2021/06/08 00:17:00;;;;;;;30.83;19.75;;;;;;;15.31;85.37;101658.78;5042494;28;20053;-86
2021/06/08 00:19:27;;;;;;;20.75;18.25;;;;;;;15.34;85.22;101654.34;5026191;28;20780;-85
2021/06/08 00:21:55;;;;;;;21.38;17.83;;;;;;;15.37;85.05;101651.66;4998686;28;20041;-85
2021/06/08 00:24:23;;;;;;;25.52;19.55;;;;;;;15.42;84.79;101651.56;5008793;28;20053;-85
2021/06/08 00:26:50;;;;;;;19.27;15.55;;;;;;;15.44;84.96;101652.44;4994908;28;20054;-85
2021/06/08 00:29:17;;;;;;;23.85;19.25;;;;;;;15.47;84.66;101652.38;5014665;28;20104;-86
2021/06/08 00:31:43;;;;;;;20.38;16.95;;;;;;;15.49;84.50;101647.13;5043465;28;20045;-86
2021/06/08 00:34:12;;;;;;;17.80;15.32;;;;;;;15.51;84.21;101648.84;5030775;28;20049;-87
2021/06/08 00:36:38;;;;;;;24.50;18.65;;;;;;;15.52;84.12;101642.66;5003890;28;21643;-86
2021/06/08 00:39:15;;;;;;;23.83;20.23;;;;;;;15.53;84.05;101646.19;5013357;28;21542;-87
2021/06/08 00:41:43;;;;;;;25.35;19.90;;;;;;;15.54;84.08;101642.66;5026365;28;20056;-84
2021/06/08 00:44:16;;;;;;;26.33;19.42;;;;;;;15.55;83.82;101641.72;5013240;28;20046;-86
2021/06/08 00:46:46;;;;;;;24.27;17.23;;;;;;;15.55;83.86;101640.00;5010831;28;20115;-86
2021/06/08 00:49:15;;;;;;;22.00;17.67;;;;;;;15.55;83.89;101634.72;4992779;28;20568;-86
2021/06/08 00:51:42;;;;;;;21.25;16.40;;;;;;;15.56;83.68;101632.94;5012657;28;20041;-86
2021/06/08 00:54:13;;;;;;;22.92;17.40;;;;;;;15.58;83.64;101632.91;4996498;28;20045;-86
2021/06/08 00:56:44;;;;;;;20.33;17.08;;;;;;;15.57;83.47;101625.91;5009349;28;20049;-85
2021/06/08 00:59:13;;;;;;;27.70;18.00;;;;;;;15.58;83.44;101630.25;5000535;28;20049;-86
2021/06/08 01:01:42;;;;;;;21.63;18.33;;;;;;;15.57;83.45;101629.41;5039902;28;20084;-86
2021/06/08 01:04:13;;;;;;;21.30;18.10;;;;;;;15.58;83.16;101630.25;5028456;28;20049;-85
2021/06/08 01:06:41;;;;;;;23.65;18.02;;;;;;;15.57;83.33;101623.25;5022666;28;20049;-86
2021/06/08 01:09:10;;;;;;;19.45;17.17;;;;;;;15.54;83.37;101617.13;5028178;28;20063;-86
2021/06/08 01:11:36;;;;;;;19.35;15.70;;;;;;;15.52;83.31;101610.97;5013777;28;20508;-86
2021/06/08 01:14:04;;;;;;;19.58;14.88;;;;;;;15.49;83.29;101612.81;5043046;28;20129;-86
2021/06/08 01:16:34;;;;;;;20.10;16.02;;;;;;;15.47;83.37;101610.16;5010362;28;20056;-86
2021/06/08 01:19:03;;;;;;;21.10;17.05;;;;;;;15.40;83.38;101613.81;5027219;28;20042;-86
2021/06/08 01:21:31;;;;;;;23.08;17.52;;;;;;;15.31;83.77;101619.22;5028315;28;20069;-85
2021/06/08 01:23:57;;;;;;;19.05;15.63;;;;;;;15.24;84.06;101621.06;5011444;28;20496;-85
2021/06/08 01:26:36;;;;;;;22.85;18.08;;;;;;;15.16;83.70;101621.16;5013093;28;20127;-86
2021/06/08 01:29:08;;;;;;;22.48;17.17;;;;;;;15.08;84.20;101630.91;4998826;28;20187;-86
2021/06/08 01:31:42;;;;;;;22.92;17.35;;;;;;;15.01;84.63;101627.47;5025321;28;20056;-86
2021/06/08 01:34:08;;;;;;;23.33;18.05;;;;;;;14.98;84.79;101630.16;5058645;28;20050;-86
2021/06/08 01:36:41;;;;;;;23.52;17.35;;;;;;;14.95;84.97;101622.25;5056308;28;20124;-86
2021/06/08 01:39:08;;;;;;;20.63;17.77;;;;;;;14.91;84.78;101625.81;5064604;28;20087;-86
2021/06/08 01:41:37;;;;;;;20.25;17.90;;;;;;;14.86;84.98;101623.25;5009552;28;20061;-86
2021/06/08 01:44:05;;;;;;;22.65;18.40;;;;;;;14.80;84.98;101625.09;4995817;28;20053;-86
2021/06/08 01:46:34;;;;;;;27.23;18.60;;;;;;;14.71;85.46;101623.44;5009776;28;20049;-85
2021/06/08 01:49:01;;;;;;;22.48;17.75;;;;;;;14.61;85.52;101619.97;4997105;28;20085;-85
2021/06/08 01:52:14;;;;;;;24.80;18.70;;;;;;;14.50;86.09;101620.09;4996085;28;20053;-86
2021/06/08 01:54:56;;;;;;;22.75;17.30;;;;;;;14.41;86.04;101620.19;5007615;28;20056;-86
2021/06/08 01:57:45;;;;;;;26.88;21.23;;;;;;;14.31;86.77;101619.38;5042295;28;20631;-85
2021/06/08 02:00:21;;;;;;;23.55;18.80;;;;;;;14.23;86.70;101618.56;5025564;28;20049;-86
2021/06/08 02:03:38;;;;;;;23.35;20.42;;;;;;;14.15;87.34;101626.53;5043552;28;20046;-86
2021/06/08 02:06:22;;;;;;;21.35;16.95;;;;;;;14.06;87.38;101622.22;4974182;28;20060;-86
2021/06/08 02:09:14;;;;;;;20.70;17.92;;;;;;;13.99;87.61;101623.16;5011364;28;20405;-85
2021/06/08 02:12:14;;;;;;;25.17;18.73;;;;;;;13.90;88.12;101617.97;5027939;28;20057;-86
2021/06/08 02:15:09;;;;;;;20.88;17.60;;;;;;;13.83;88.50;101624.16;5024806;28;20434;-86
2021/06/08 02:17:51;;;;;;;26.10;19.08;;;;;;;13.78;88.90;101621.56;5006779;28;20491;-86
2021/06/08 02:20:37;;;;;;;;;;;;;;;;;;;;;
2021/06/08 02:23:15;;;;;;;25.35;21.73;;;;;;;13.75;88.98;101629.47;5025678;28;20535;-85
2021/06/08 02:25:45;;;;;;;24.77;20.95;;;;;;;13.72;88.95;101624.22;4984910;28;20061;-85
2021/06/08 02:28:15;;;;;;;24.63;19.80;;;;;;;13.69;89.29;101624.25;4994158;28;20112;-85
2021/06/08 02:30:44;;;;;;;27.92;20.33;;;;;;;13.67;89.30;101624.25;5057304;28;20041;-86
2021/06/08 02:33:13;;;;;;;26.40;22.02;;;;;;;13.65;89.68;101622.50;5027947;28;20096;-86
2021/06/08 02:35:44;;;;;;;27.13;19.85;;;;;;;13.63;89.44;101625.16;5009453;28;20057;-86
2021/06/08 02:38:16;;;;;;;24.05;20.45;;;;;;;13.57;89.82;101623.44;5022062;28;21438;-85
2021/06/08 02:40:47;;;;;;;29.85;19.98;;;;;;;13.56;89.75;101620.81;5010938;28;20053;-86
2021/06/08 02:43:24;;;;;;;23.83;20.15;;;;;;;13.53;89.85;101621.72;4991309;28;20056;-86
2021/06/08 02:45:53;;;;;;;26.25;19.50;;;;;;;13.50;90.27;101624.34;4998410;28;20053;-86
2021/06/08 02:48:25;;;;;;;24.20;20.10;;;;;;;13.50;89.98;101632.22;5044187;28;20624;-86
2021/06/08 02:50:55;;;;;;;33.30;20.38;;;;;;;13.49;90.19;101625.25;5026506;28;20053;-86
2021/06/08 02:53:24;;;;;;;26.80;19.88;;;;;;;13.50;90.46;101634.00;5012153;28;20073;-85
2021/06/08 02:55:53;;;;;;;24.83;19.83;;;;;;;13.54;90.24;101627.84;5040637;28;21147;-85
2021/06/08 02:58:21;;;;;;;19.45;16.92;;;;;;;13.63;90.54;101629.56;5025425;28;20420;-85
2021/06/08 03:00:48;;;;;;;24.08;17.08;;;;;;;13.73;90.27;101633.88;5019028;28;20771;-85
2021/06/08 03:03:33;;;;;;;21.75;16.77;;;;;;;13.83;90.03;101629.41;5010290;28;20076;-84
2021/06/08 03:06:13;;;;;;;23.98;18.05;;;;;;;13.97;89.18;101635.44;5004002;28;20987;-87
2021/06/08 03:09:03;;;;;;;28.30;18.55;;;;;;;14.05;88.83;101638.91;5040804;28;20056;-86
2021/06/08 03:11:37;;;;;;;18.65;15.70;;;;;;;14.12;88.80;101636.22;5030373;28;20057;-86
2021/06/08 03:14:16;;;;;;;23.55;17.33;;;;;;;14.16;88.57;101638.81;4992914;28;20180;-84
2021/06/08 03:16:52;;;;;;;22.00;17.02;;;;;;;14.22;88.21;101635.25;5027716;28;21407;-86
2021/06/08 03:19:27;;;;;;;19.45;16.10;;;;;;;14.25;87.85;101640.53;5026150;28;20116;-87
2021/06/08 03:21:59;;;;;;;21.02;17.02;;;;;;;14.27;88.03;101635.22;5045344;28;20053;-87
2021/06/08 03:24:33;;;;;;;18.08;15.65;;;;;;;14.28;87.54;101632.56;5031990;28;20163;-87
2021/06/08 03:27:02;;;;;;;25.13;17.60;;;;;;;14.29;87.57;101633.44;5040373;28;20049;-85
2021/06/08 03:29:33;;;;;;;20.60;16.33;;;;;;;14.28;87.46;101645.75;5026184;28;20048;-86
2021/06/08 03:32:02;;;;;;;17.15;14.25;;;;;;;14.30;87.51;101643.09;5041330;28;20049;-87
2021/06/08 03:34:34;;;;;;;15.35;12.93;;;;;;;14.32;87.49;101647.47;5023021;28;20045;-86
2021/06/08 03:37:04;;;;;;;16.05;13.57;;;;;;;14.35;87.41;101642.19;4980188;28;21289;-86
2021/06/08 03:39:33;;;;;;;23.13;15.20;;;;;;;14.39;87.09;101643.91;4979950;28;20099;-84
2021/06/08 03:42:02;;;;;;;22.05;17.63;;;;;;;14.44;87.16;101650.88;4999571;28;20038;-86
2021/06/08 03:44:29;;;;;;;15.50;13.50;;;;;;;14.47;87.07;101650.84;5028927;28;20522;-85
2021/06/08 03:46:55;;;;;;;17.58;13.80;;;;;;;14.50;87.11;101648.19;5010740;28;20056;-86
2021/06/08 03:49:23;;;;;;;20.42;15.77;;;;;;;14.53;86.82;101645.53;5030122;28;20660;-87
2021/06/08 03:51:53;;;;;;;24.83;17.25;;;;;;;14.58;86.78;101643.72;5031036;28;20053;-85
2021/06/08 03:54:21;;;;;;;17.25;14.75;;;;;;;14.61;86.48;101643.69;5012677;28;20135;-86
2021/06/08 03:56:53;;;;;;;19.73;16.88;;;;;;;14.67;86.42;101653.34;5025658;28;20148;-85
2021/06/08 03:59:28;;;;;;;21.85;17.45;;;;;;;14.72;86.25;101656.81;5012987;28;20045;-86
2021/06/08 04:01:55;;;;;;;21.15;16.48;;;;;;;14.74;85.95;101647.09;5026061;28;20076;-86
2021/06/08 04:04:23;;;;;;;19.33;15.80;;;;;;;14.78;85.93;101643.53;4997632;28;20049;-85
2021/06/08 04:06:51;;;;;;;21.02;18.42;;;;;;;14.81;85.78;101646.16;5009644;28;20049;-86
2021/06/08 04:09:18;;;;;;;16.83;13.90;;;;;;;14.82;85.60;101644.38;4998740;28;20589;-86
2021/06/08 04:11:51;;;;;;;27.50;19.73;;;;;;;14.82;85.69;101637.38;4998848;28;20096;-86
2021/06/08 04:14:24;;;;;;;22.30;17.03;;;;;;;14.81;85.36;101646.16;5028471;28;20069;-85
2021/06/08 04:16:50;;;;;;;20.90;15.82;;;;;;;14.84;85.87;101646.13;4974384;28;20041;-85
2021/06/08 04:19:16;;;;;;;16.38;14.63;;;;;;;14.91;85.39;101641.66;4992101;28;20049;-84
2021/06/08 04:21:53;;;;;;;23.08;17.83;;;;;;;14.99;85.04;101639.81;5023288;28;20576;-86
2021/06/08 04:24:24;;;;;;;19.13;16.55;;;;;;;15.07;84.80;101637.09;4990289;28;20069;-86
2021/06/08 04:26:54;;;;;;;20.50;18.30;;;;;;;15.14;84.66;101636.13;5016135;28;21387;-85
2021/06/08 04:29:27;;;;;;;24.10;18.60;;;;;;;15.20;84.48;101640.44;4999654;28;20360;-86
2021/06/08 04:31:56;;;;;;;21.27;18.08;;;;;;;15.28;84.19;101640.34;4995129;28;20053;-86
2021/06/08 04:34:24;;;;;;;20.83;17.88;;;;;;;15.33;83.75;101643.78;5019628;28;20051;-85
2021/06/08 04:36:53;;;;;;;21.27;17.17;;;;;;;15.36;83.73;101643.75;5033278;28;20050;-85
2021/06/08 04:39:22;;;;;;;24.00;18.20;;;;;;;15.40;83.47;101640.19;5000093;28;20056;-86
2021/06/08 04:41:58;;;;;;;23.80;19.73;;;;;;;15.45;83.37;101642.75;5033817;28;20076;-85
2021/06/08 04:44:24;;;;;;;18.60;16.30;;;;;;;15.47;83.16;101643.63;5018667;28;20064;-85
2021/06/08 04:46:50;;;;;;;21.15;16.42;;;;;;;15.48;83.14;101643.59;5032277;28;20878;-85
2021/06/08 04:49:23;;;;;;;23.13;18.73;;;;;;;15.50;83.10;101647.09;5029086;28;20796;-87
2021/06/08 04:51:55;;;;;;;23.10;16.55;;;;;;;15.53;83.02;101644.41;4999937;28;20057;-86
2021/06/08 04:54:26;;;;;;;27.10;19.98;;;;;;;15.59;82.91;101629.38;5001699;28;20160;-87
2021/06/08 04:56:53;;;;;;;31.52;21.15;;;;;;;15.62;82.77;101637.22;4998604;28;20049;-86
2021/06/08 04:59:33;;;;;;;23.90;18.95;;;;;;;15.62;82.50;101639.88;5018915;28;20057;-86
2021/06/08 05:02:06;;;;;;;25.98;20.17;;;;;;;15.66;82.64;101638.97;5015024;28;20140;-86
2021/06/08 05:04:44;;;;;;;26.83;21.13;;;;;;;15.68;82.27;101639.78;5015820;28;20049;-86
2021/06/08 05:07:16;;;;;;;29.25;20.42;;;;;;;15.71;82.03;101642.41;4995173;28;20053;-86
2021/06/08 05:09:46;;;;;;;26.30;20.70;;;;;;;15.74;82.05;101644.13;5000687;28;20057;-86
2021/06/08 05:12:23;;;;;;;21.00;17.90;;;;;;;15.80;81.90;101649.31;5032982;28;21274;-86
2021/06/08 05:14:57;;;;;;;29.33;20.48;;;;;;;15.81;81.82;101651.09;5030347;28;20492;-84
2021/06/08 05:17:25;;;;;;;;;;;;;;;15.76;81.87;101651.13;5008705;28;20096;-87
2021/06/08 05:19:54;;;;;;;15.68;13.73;;;;;;;15.79;81.92;101655.50;5029087;28;20445;-86
2021/06/08 05:22:25;;;;;;;38.03;23.92;;;;;;;15.83;81.78;101650.16;5000598;28;20131;-86
2021/06/08 05:24:56;;;;;;;31.23;20.30;;;;;;;15.86;81.72;101650.13;5001280;28;20073;-85
2021/06/08 05:27:26;;;;;;;41.95;25.63;;;;;;;15.93;81.51;101655.31;5013810;28;20057;-86
2021/06/08 05:29:57;;;;;;;39.42;26.25;;;;;;;15.95;81.21;101656.16;5014921;28;20080;-86
2021/06/08 05:32:24;;;;;;;39.53;25.85;;;;;;;15.95;81.20;101656.16;4978766;28;20041;-85
2021/06/08 05:34:53;;;;;;;37.50;26.40;;;;;;;15.92;81.24;101656.19;5013850;28;20045;-86
2021/06/08 05:37:22;;;;;;;45.63;30.20;;;;;;;15.94;81.14;101663.19;5005060;28;20041;-85
2021/06/08 05:40:03;;;;;;;51.90;31.33;;;;;;;15.98;80.87;101666.66;5047151;28;20045;-85
2021/06/08 05:42:34;;;;;;;44.47;29.60;;;;;;;15.98;80.99;101664.03;5017396;28;20108;-85
2021/06/08 05:45:04;;;;;;;41.00;27.42;;;;;;;15.98;80.89;101664.94;4994996;28;20057;-85
2021/06/08 05:47:35;;;;;;;39.33;25.65;;;;;;;16.01;81.18;101659.59;5013827;28;20061;-85
2021/06/08 05:50:05;;;;;;;41.15;29.88;;;;;;;16.05;80.89;101660.41;5012180;28;20053;-85
2021/06/08 05:52:32;;;;;;;42.20;27.95;;;;;;;16.07;80.94;101669.16;5061445;28;21772;-86
2021/06/08 05:55:03;;;;;;;42.08;27.10;;;;;;;16.09;80.89;101674.41;5011525;28;20053;-86
2021/06/08 05:57:32;;;;;;;45.75;27.13;;;;;;;16.14;80.70;101669.94;5001619;28;20048;-86
2021/06/08 06:00:04;;;;;;;47.10;28.15;;;;;;;16.19;80.56;101676.03;5013392;28;20049;-85
2021/06/08 06:02:34;;;;;;;50.30;32.55;;;;;;;16.22;80.47;101678.63;5024250;28;20042;-86
2021/06/08 06:05:03;;;;;;;43.75;25.52;;;;;;;16.25;80.36;101678.56;5042194;28;20049;-87
2021/06/08 06:07:34;;;;;;;51.42;30.98;;;;;;;16.31;80.13;101675.84;5027643;28;20049;-85
2021/06/08 06:10:01;;;;;;;49.05;28.73;;;;;;;16.34;80.10;101681.06;4996166;28;20124;-86
2021/06/08 06:12:35;;;;;;;49.50;28.02;;;;;;;16.40;79.97;101672.19;5046053;28;20050;-85
2021/06/08 06:15:06;;;;;;;51.25;29.20;;;;;;;16.48;79.62;101669.41;5027841;28;20246;-86
2021/06/08 06:17:36;;;;;;;49.25;30.42;;;;;;;16.57;79.30;101676.28;4996905;28;20049;-87
2021/06/08 06:20:15;;;;;;;40.67;25.77;;;;;;;16.61;79.14;101681.50;5008360;28;20057;-87
2021/06/08 06:22:43;;;;;;;38.83;24.23;;;;;;;16.64;79.20;101672.66;5046265;28;20096;-87
2021/06/08 06:25:14;;;;;;;44.42;28.08;;;;;;;16.62;78.99;101680.59;5012679;28;20103;-87
2021/06/08 06:27:44;;;;;;;35.70;25.70;;;;;;;16.54;79.35;101679.84;5040898;28;20521;-87
2021/06/08 06:30:24;;;;;;;33.13;22.60;;;;;;;16.53;79.27;101670.16;5029063;28;20521;-87
2021/06/08 06:32:50;;;;;;;31.92;22.35;;;;;;;16.51;79.05;101672.84;5009083;28;20049;-87
2021/06/08 06:35:17;;;;;;;42.10;27.58;;;;;;;16.52;79.41;101668.44;4995911;28;20041;-86
2021/06/08 06:37:46;;;;;;;50.00;27.40;;;;;;;16.59;79.24;101679.78;4990065;28;20504;-86
2021/06/08 06:40:17;;;;;;;48.33;30.23;;;;;;;16.67;79.00;101678.75;5014548;28;20416;-86
2021/06/08 06:42:48;;;;;;;39.95;23.02;;;;;;;16.75;78.70;101677.72;5017594;28;20053;-87
2021/06/08 06:45:28;;;;;;;39.03;24.67;;;;;;;16.78;78.60;101681.19;5013183;28;20046;-86
2021/06/08 06:48:02;;;;;;;33.13;23.60;;;;;;;16.87;78.29;101674.88;5017672;28;20504;-87
2021/06/08 06:50:39;;;;;;;41.85;25.08;;;;;;;16.90;78.14;101679.22;4996962;28;20046;-85
2021/06/08 06:53:18;;;;;;;47.67;31.25;;;;;;;16.91;78.02;101684.53;5002620;28;20136;-86
2021/06/08 06:55:55;;;;;;;52.70;31.00;;;;;;;16.93;78.08;101685.34;5032576;28;20060;-85
2021/06/08 06:58:25;;;;;;;55.42;33.08;;;;;;;16.99;77.94;101681.72;5034169;28;20029;-87
2021/06/08 07:00:54;;;;;;;47.65;30.00;;;;;;;17.06;77.74;101683.34;5034590;28;20140;-86
2021/06/08 07:03:33;;;;;;;37.00;24.45;;;;;;;17.14;77.41;101684.09;5016069;28;20049;-85
2021/06/08 07:06:03;;;;;;;47.78;27.75;;;;;;;17.23;77.19;101684.78;5002563;28;20055;-86
2021/06/08 07:08:35;;;;;;;42.92;29.17;;;;;;;17.25;77.15;101689.16;5015985;28;20420;-88
2021/06/08 07:11:03;;;;;;;40.00;24.77;;;;;;;17.27;77.06;101692.63;5016876;28;20144;-86
2021/06/08 07:13:34;;;;;;;42.90;28.65;;;;;;;17.34;76.88;101688.94;4985409;28;20124;-86
2021/06/08 07:16:03;;;;;;;51.25;29.92;;;;;;;17.39;76.68;101691.53;5012030;28;20053;-87
2021/06/08 07:18:32;;;;;;;38.13;25.75;;;;;;;17.36;76.74;101681.88;4998127;28;20057;-87
2021/06/08 07:21:05;;;;;;;43.78;27.45;;;;;;;17.34;76.86;101688.94;5028219;28;20045;-86
2021/06/08 07:23:36;;;;;;;40.65;28.58;;;;;;;17.33;76.69;101696.94;4999102;28;20644;-86
2021/06/08 07:26:04;;;;;;;38.35;26.67;;;;;;;17.22;76.88;101696.28;5001013;28;20049;-86
2021/06/08 07:28:34;;;;;;;33.17;22.92;;;;;;;17.19;76.92;101698.09;4985090;28;20050;-87
2021/06/08 07:31:03;;;;;;;37.15;25.80;;;;;;;17.19;76.93;101694.56;5034000;28;20053;-87
2021/06/08 07:34:13;;;;;;;38.05;26.98;;;;;;;17.20;76.76;101698.94;5015264;28;20065;-87
2021/06/08 07:37:02;;;;;;;42.35;26.67;;;;;;;17.19;76.86;101687.50;4990305;28;20145;-86
2021/06/08 07:39:55;;;;;;;45.55;26.60;;;;;;;17.10;77.11;101694.75;4974305;28;20057;-85
2021/06/08 07:42:38;;;;;;;42.92;28.40;;;;;;;17.06;77.05;101691.28;5011663;28;20045;-87
2021/06/08 07:45:23;;;;;;;44.17;26.15;;;;;;;17.04;77.48;101698.38;5015986;28;20049;-87
2021/06/08 07:47:54;;;;;;;52.45;29.10;;;;;;;17.06;77.47;101698.34;5001708;28;20057;-87
2021/06/08 07:50:27;;;;;;;43.08;26.52;;;;;;;17.11;77.06;101691.19;5014309;28;20057;-87
2021/06/08 07:53:03;;;;;;;31.38;22.17;;;;;;;17.19;77.25;101699.84;4986805;28;20119;-87
2021/06/08 07:55:35;;;;;;;45.80;26.42;;;;;;;17.32;76.95;101706.63;5017387;28;20049;-86
2021/06/08 07:58:03;;;;;;;48.40;29.58;;;;;;;17.48;76.50;101698.38;5035648;28;20081;-87
2021/06/08 08:00:38;;;;;;;53.50;30.67;;;;;;;17.67;75.79;101701.50;5002230;28;20053;-87
2021/06/08 08:03:26;;;;;;;49.22;29.88;;;;;;;17.74;75.61;101697.81;4999381;28;20041;-87
2021/06/08 08:06:03;;;;;;;49.42;32.40;;;;;;;17.88;75.45;101704.59;5015317;28;20111;-88
2021/06/08 08:08:34;;;;;;;50.45;31.02;;;;;;;18.01;75.10;101701.63;5015320;28;20049;-86
2021/06/08 08:11:06;;;;;;;54.20;34.15;;;;;;;18.08;74.83;101704.16;5014159;28;20053;-86
2021/06/08 08:13:44;;;;;;;52.20;31.25;;;;;;;18.15;74.37;101706.63;4983508;28;20049;-87
2021/06/08 08:16:15;;;;;;;50.92;31.23;;;;;;;18.27;73.74;101701.94;5011202;28;20056;-87
2021/06/08 08:18:44;;;;;;;49.97;30.15;;;;;;;18.33;73.35;101702.66;5031366;28;20055;-87
2021/06/08 08:21:17;;;;;;;53.80;31.73;;;;;;;18.46;73.00;101707.63;5029103;28;20049;-86
2021/06/08 08:23:45;;;;;;;52.00;31.15;;;;;;;18.59;72.44;101703.78;5015272;28;20508;-88
2021/06/08 08:26:12;;;;;;;52.50;32.85;;;;;;;18.69;72.22;101709.72;5015275;28;20050;-87
2021/06/08 08:28:43;;;;;;;50.72;33.92;;;;;;;18.73;72.36;101711.38;5014376;28;20042;-87
2021/06/08 08:31:14;;;;;;;52.10;28.63;;;;;;;18.79;72.04;101707.69;5001910;28;20045;-87
2021/06/08 08:33:43;;;;;;;50.83;31.65;;;;;;;18.90;71.85;101715.41;5014112;28;20073;-87
2021/06/08 08:36:34;;;;;;;46.03;28.75;;;;;;;18.98;71.57;101711.63;5017445;28;20097;-86
2021/06/08 08:39:10;;;;;;;43.72;27.88;;;;;;;18.94;71.66;101717.94;4997511;28;20091;-88
2021/06/08 08:41:40;;;;;;;48.30;30.35;;;;;;;19.01;71.58;101708.88;4986244;28;20065;-88
2021/06/08 08:44:10;;;;;;;48.50;29.92;;;;;;;19.18;71.23;101711.06;5033899;28;20427;-87
2021/06/08 08:46:42;;;;;;;45.88;29.15;;;;;;;19.32;70.58;101708.03;4992943;28;20053;-86
2021/06/08 08:49:15;;;;;;;42.80;26.67;;;;;;;19.41;70.37;101703.34;5003231;28;20053;-88
2021/06/08 08:51:49;;;;;;;45.40;28.65;;;;;;;19.46;69.87;101707.63;5032316;28;20354;-86
2021/06/08 08:54:24;;;;;;;46.72;26.17;;;;;;;19.61;69.50;101706.28;5001202;28;20045;-86
2021/06/08 08:56:55;;;;;;;37.70;26.92;;;;;;;19.75;68.61;101708.53;5027986;28;20597;-85
2021/06/08 08:59:35;;;;;;;39.20;28.38;;;;;;;19.78;67.97;101710.25;5001634;28;20057;-87
2021/06/08 09:02:04;;;;;;;33.30;24.10;;;;;;;19.70;68.52;101709.56;5046954;28;20059;-87
2021/06/08 09:04:33;;;;;;;41.40;28.60;;;;;;;19.85;68.11;101700.31;5031390;28;20052;-87
2021/06/08 09:07:03;;;;;;;39.60;26.50;;;;;;;20.15;67.42;101703.78;5050969;28;20069;-87
2021/06/08 09:09:34;;;;;;;33.83;24.70;;;;;;;20.53;66.39;101704.28;4980866;28;20136;-87
2021/06/08 09:12:14;;;;;;;34.85;25.02;;;;;;;21.27;64.39;101701.69;5002164;28;20072;-88
2021/06/08 09:14:43;;;;;;;34.85;26.02;;;;;;;22.30;61.58;101690.63;4998306;28;20160;-88
2021/06/08 09:17:15;;;;;;;36.28;27.73;;;;;;;22.97;59.32;101699.31;5019636;28;20034;-87
2021/06/08 09:19:45;;;;;;;29.65;25.33;;;;;;;23.11;58.61;101699.59;5005675;28;20508;-86
2021/06/08 09:22:13;;;;;;;27.52;21.08;;;;;;;23.76;56.87;101696.59;5019573;28;20049;-88
2021/06/08 09:24:54;;;;;;;30.42;24.23;;;;;;;24.61;52.83;101699.59;5021070;28;20060;-87
2021/06/08 09:27:32;;;;;;;27.75;22.58;;;;;;;24.43;53.80;101691.59;4983598;28;20061;-86
2021/06/08 09:30:00;;;;;;;32.22;24.88;;;;;;;24.30;53.89;101694.94;4987449;28;20056;-87
2021/06/08 09:32:36;;;;;;;29.38;24.65;;;;;;;23.95;54.73;101696.63;4994766;28;20164;-88
2021/06/08 09:35:04;;;;;;;30.73;24.10;;;;;;;23.56;55.94;101694.03;5017759;28;20045;-86
2021/06/08 09:37:44;;;;;;;28.77;23.55;;;;;;;23.37;56.07;101697.56;5004171;28;20119;-88
2021/06/08 09:40:25;;;;;;;25.85;21.65;;;;;;;23.82;54.89;101695.47;5014773;28;20064;-85
2021/06/08 09:43:12;;;;;;;29.60;23.65;;;;;;;25.08;51.06;101687.38;5015573;28;20063;-87
2021/06/08 09:45:54;;;;;;;31.95;24.80;;;;;;;25.44;49.84;101686.34;5015699;28;20038;-87
2021/06/08 09:48:26;;;;;;;33.45;26.33;;;;;;;25.11;51.06;101689.91;5046938;28;20080;-86
2021/06/08 09:50:55;;;;;;;32.35;24.95;;;;;;;24.77;51.84;101683.66;4997871;28;20056;-86
2021/06/08 09:53:33;;;;;;;31.63;25.35;;;;;;;24.41;51.89;101674.72;5036840;28;20504;-85
2021/06/08 09:56:10;;;;;;;33.47;27.25;;;;;;;23.98;53.18;101676.03;5036282;28;20077;-84
2021/06/08 09:58:53;;;;;;;32.75;28.23;;;;;;;23.75;53.86;101675.31;5011837;28;20052;-86
2021/06/08 10:01:27;;;;;;;;;;;;;;;23.53;54.24;101680.81;4985424;28;20044;-88
2021/06/08 10:04:06;;;;;;;30.65;25.40;;;;;;;23.78;54.02;101678.69;5019461;28;19991;-86
2021/06/08 10:06:44;;;;;;;29.55;24.95;;;;;;;24.17;52.66;101676.84;5000693;28;20045;-86
2021/06/08 10:09:15;;;;;;;30.83;25.58;;;;;;;24.92;51.24;101671.25;5000188;28;20056;-88
2021/06/08 10:11:45;;;;;;;29.98;26.25;;;;;;;26.39;47.12;101671.97;5033363;28;20128;-87
2021/06/08 10:14:17;;;;;;;24.83;22.27;;;;;;;27.84;44.64;101667.47;5004229;28;20045;-86
2021/06/08 10:17:14;;;;;;;29.40;25.07;;;;;;;29.28;41.11;101664.88;5013942;28;20057;-87
2021/06/08 10:19:45;;;;;;;24.00;21.48;;;;;;;30.35;39.54;101660.53;5018196;28;20041;-85
2021/06/08 10:22:44;;;;;;;28.27;25.30;;;;;;;30.03;37.18;101653.09;5000519;28;20697;-87
2021/06/08 10:25:17;;;;;;;28.98;26.02;;;;;;;28.90;39.38;101652.31;4986312;28;20050;-87
2021/06/08 10:27:44;;;;;;;23.70;21.30;;;;;;;28.28;41.79;101653.84;5012622;28;20049;-87
2021/06/08 10:30:13;;;;;;;27.60;24.55;;;;;;;27.69;42.60;101655.91;5000074;28;20071;-86
2021/06/08 10:32:46;;;;;;;25.50;22.80;;;;;;;27.69;41.38;101653.22;4987003;28;22261;-87
2021/06/08 10:35:15;;;;;;;24.52;22.00;;;;;;;27.60;42.42;101651.13;5014556;28;20100;-87
2021/06/08 10:37:45;;;;;;;23.50;21.20;;;;;;;27.54;42.92;101651.53;4999044;28;20073;-87
2021/06/08 10:40:13;;;;;;;29.33;22.75;;;;;;;27.78;42.49;101642.81;5015784;28;20051;-86
2021/06/08 10:42:44;;;;;;;24.88;22.27;;;;;;;28.54;41.21;101639.44;4999866;28;20072;-87
2021/06/08 10:45:14;;;;;;;21.63;19.48;;;;;;;29.11;40.18;101633.72;4994155;28;20049;-86
2021/06/08 10:47:55;;;;;;;22.40;20.10;;;;;;;29.42;38.44;101631.53;4998366;28;20323;-86
2021/06/08 10:50:44;;;;;;;21.65;19.45;;;;;;;29.53;38.74;101640.53;5032483;28;20049;-88
2021/06/08 10:53:36;;;;;;;22.08;19.80;;;;;;;29.27;39.14;101639.78;5009144;28;20052;-86
2021/06/08 10:56:38;;;;;;;;;;;;;;;;;;;;;
2021/06/08 10:59:15;;;;;;;23.60;19.70;;;;;;;28.16;40.90;101636.69;5014868;28;20049;-84
2021/06/08 11:04:55;;;;;;;19.60;17.63;;;;;;;29.46;37.29;101628.47;5000516;28;20054;-84
2021/06/08 11:07:45;;;;;;;22.73;20.40;;;;;;;30.09;35.83;101628.31;5013333;28;20057;-86
2021/06/08 11:10:26;;;;;;;19.83;17.25;;;;;;;30.40;35.67;101631.34;5010706;28;20073;-88
2021/06/08 11:13:07;;;;;;;18.42;16.52;;;;;;;31.82;34.01;101621.81;4999782;28;20121;-86
2021/06/08 11:15:46;;;;;;;21.02;19.08;;;;;;;32.62;30.98;101633.09;5013032;28;20050;-86
2021/06/08 11:18:23;;;;;;;17.00;15.32;;;;;;;31.87;33.04;101634.97;5016479;28;20116;-88
2021/06/08 11:21:06;;;;;;;18.80;16.92;;;;;;;31.18;34.34;101642.38;4998426;28;20073;-85
2021/06/08 11:23:42;;;;;;;20.02;18.05;;;;;;;30.29;35.62;101629.47;5010505;28;20523;-86
2021/06/08 11:26:18;;;;;;;18.90;17.05;;;;;;;29.85;36.56;101631.00;5015862;28;20172;-88
2021/06/08 11:28:55;;;;;;;21.48;19.38;;;;;;;29.35;37.45;101631.13;4982630;28;20084;-85
2021/06/08 11:31:24;;;;;;;22.45;20.23;;;;;;;28.37;38.89;101627.16;5025650;28;20132;-86
2021/06/08 11:34:16;;;;;;;19.23;17.42;;;;;;;28.02;39.31;101618.81;5035771;28;20053;-89
2021/06/08 11:36:47;;;;;;;19.88;17.83;;;;;;;27.68;40.14;101624.59;5036377;28;20065;-88
2021/06/08 11:39:20;;;;;;;20.02;17.95;;;;;;;27.29;41.39;101628.03;5006853;28;20060;-85
2021/06/08 11:41:57;;;;;;;;;;;;;;;26.56;42.59;101619.09;5019447;28;20432;-88
2021/06/08 11:44:24;;;;;;;20.67;18.58;;;;;;;26.09;44.06;101616.50;5013942;28;19932;-85